Time;durP1;ratioP1;P1;durP2;ratioP2;P2;SDS_P1;SDS_P2;PMS_P1;PMS_P2;Temp;Humidity;BMP_temperature;BMP_pressure;BME280_temperature;BME280_humidity;BME280_pressure;Samples;Min_cycle;Max_cycle;Signal;HPM_P1;HPM_P2
2022/04/12 00:01:47;;;;;;;221.60;76.30;;;;;;;3.67;71.37;100869.80;1382015;87;21585;-83
2022/04/12 00:04:14;;;;;;;250.03;80.93;;;;;;;3.61;71.64;100871.84;1367781;89;21452;-85
2022/04/12 00:06:41;;;;;;;214.87;70.90;;;;;;;3.56;71.97;100873.05;1371067;89;21672;-83
2022/04/12 00:09:08;;;;;;;205.77;68.47;;;;;;;3.59;71.42;100876.31;1378756;89;21439;-84
2022/04/12 00:11:35;;;;;;;190.43;67.00;;;;;;;3.61;73.02;100877.55;1377430;89;21405;-84
2022/04/12 00:14:03;;;;;;;185.70;66.07;;;;;;;3.57;72.42;100876.05;1377725;89;22263;-82
2022/04/12 00:16:30;;;;;;;163.77;59.33;;;;;;;3.53;72.84;100876.68;1381053;89;22529;-82
2022/04/12 00:19:03;;;;;;;120.80;46.73;;;;;;;3.55;73.04;100872.20;1366360;90;22504;-83
2022/04/12 00:21:36;;;;;;;91.40;38.90;;;;;;;3.56;72.97;100871.27;1377587;89;22513;-84
2022/04/12 00:24:07;;;;;;;97.73;36.80;;;;;;;3.59;72.80;100865.84;1387658;89;21553;-83
2022/04/12 00:26:34;;;;;;;99.28;42.08;;;;;;;3.64;72.93;100871.29;1389782;88;22437;-84
2022/04/12 00:29:02;;;;;;;100.80;37.57;;;;;;;3.64;73.33;100859.51;1379397;87;22352;-83
2022/04/12 00:31:30;;;;;;;85.13;34.10;;;;;;;3.59;74.74;100867.16;1377327;89;22938;-81
2022/04/12 00:33:58;;;;;;;80.23;28.87;;;;;;;3.53;74.71;100870.14;1380377;89;22523;-81
2022/04/12 00:36:25;;;;;;;76.33;30.83;;;;;;;3.43;74.72;100869.49;1385850;88;21582;-81
2022/04/12 00:38:52;;;;;;;73.60;31.00;;;;;;;3.37;74.75;100861.54;1376852;89;21605;-81
2022/04/12 00:41:19;;;;;;;76.67;33.03;;;;;;;3.33;74.79;100867.87;1383012;88;21577;-81
2022/04/12 00:43:46;;;;;;;82.17;34.87;;;;;;;3.29;75.13;100876.84;1389484;89;21551;-81
2022/04/12 00:46:13;;;;;;;81.30;34.30;;;;;;;3.23;75.32;100866.73;1365644;91;21700;-81
2022/04/12 00:48:40;;;;;;;84.80;35.93;;;;;;;3.17;74.70;100867.94;1380630;88;21705;-81
2022/04/12 00:51:08;;;;;;;89.33;35.93;;;;;;;3.21;74.66;100871.21;1385847;89;21811;-81
2022/04/12 00:53:35;;;;;;;86.00;34.27;;;;;;;3.23;75.04;100865.44;1380073;89;21673;-81
2022/04/12 00:56:02;;;;;;;101.07;38.77;;;;;;;3.26;74.23;100858.23;1367076;89;21450;-81
2022/04/12 00:58:29;;;;;;;100.80;38.03;;;;;;;3.32;74.41;100857.03;1350637;92;21578;-81
2022/04/12 01:00:57;;;;;;;99.97;40.40;;;;;;;3.36;73.66;100858.05;1357305;91;21580;-81
2022/04/12 01:03:24;;;;;;;109.23;39.57;;;;;;;3.38;74.08;100860.59;1377144;89;23188;-81
2022/04/12 01:05:51;;;;;;;102.87;43.00;;;;;;;3.38;74.88;100857.98;1375515;89;21571;-81
2022/04/12 01:08:18;;;;;;;92.07;39.83;;;;;;;3.32;74.71;100857.87;1401956;87;21586;-81
2022/04/12 01:10:46;;;;;;;100.97;41.47;;;;;;;3.30;74.27;100854.97;1402730;86;22482;-81
2022/04/12 01:13:13;;;;;;;107.67;45.03;;;;;;;3.29;75.07;100859.84;1388022;89;22472;-82
2022/04/12 01:15:42;;;;;;;95.50;37.20;;;;;;;3.18;76.02;100874.00;1411092;86;21598;-82
2022/04/12 01:18:10;;;;;;;94.37;37.97;;;;;;;3.12;76.25;100868.20;1411147;86;21666;-81
2022/04/12 01:20:37;;;;;;;106.87;41.60;;;;;;;3.12;75.74;100873.42;1411521;87;21513;-81
2022/04/12 01:23:19;;;;;;;98.37;42.53;;;;;;;3.14;75.71;100866.34;1395072;88;21520;-81
2022/04/12 01:25:45;;;;;;;;;;;;;;;3.18;75.33;100875.31;1405649;87;22416;-81
2022/04/12 01:28:13;;;;;;;118.03;41.77;;;;;;;3.23;75.63;100871.97;1403693;87;20313;-82
2022/04/12 01:30:40;;;;;;;115.30;44.43;;;;;;;3.26;75.50;100861.33;1404327;86;21622;-82
2022/04/12 01:33:08;;;;;;;124.40;45.97;;;;;;;3.26;74.82;100863.47;1403022;86;21391;-83
2022/04/12 01:35:36;;;;;;;98.00;39.67;;;;;;;3.25;75.29;100868.78;1412062;87;22509;-83
2022/04/12 01:38:03;;;;;;;123.03;44.33;;;;;;;3.24;74.91;100869.72;1406563;86;21480;-82
2022/04/12 01:40:31;;;;;;;128.63;45.03;;;;;;;3.25;75.33;100872.70;1426856;86;21538;-82
2022/04/12 01:42:58;;;;;;;107.73;44.33;;;;;;;3.17;75.51;100873.17;1411554;86;21505;-82
2022/04/12 01:45:25;;;;;;;142.57;51.60;;;;;;;3.10;75.70;100873.13;1399505;87;21658;-83
2022/04/12 01:47:53;;;;;;;127.20;49.77;;;;;;;3.05;75.33;100870.80;1404198;87;22528;-84
2022/04/12 01:50:20;;;;;;;116.10;45.93;;;;;;;3.03;75.58;100873.96;1388896;88;22386;-84
2022/04/12 01:52:47;;;;;;;140.20;47.10;;;;;;;3.04;75.52;100866.48;1402711;88;21683;-84
2022/04/12 01:55:15;;;;;;;134.67;48.97;;;;;;;3.00;76.29;100868.08;1403108;87;21634;-85
2022/04/12 01:57:42;;;;;;;118.40;43.87;;;;;;;2.94;76.68;100867.95;1404846;87;21750;-84
2022/04/12 02:00:11;;;;;;;145.23;49.73;;;;;;;2.87;76.50;100872.67;1404699;87;21721;-85
2022/04/12 02:02:38;;;;;;;138.70;46.50;;;;;;;2.87;76.28;100862.69;1415195;86;21634;-82
2022/04/12 02:05:05;;;;;;;130.17;49.03;;;;;;;2.86;76.27;100861.02;1404833;87;21548;-82
2022/04/12 02:07:32;;;;;;;139.23;51.83;;;;;;;2.86;76.46;100859.70;1408536;86;21528;-83
2022/04/12 02:09:59;;;;;;;164.87;58.63;;;;;;;2.84;76.36;100855.02;1417329;86;21562;-82
2022/04/12 02:12:27;;;;;;;230.73;84.87;;;;;;;2.81;76.38;100854.73;1417416;86;21617;-82
2022/04/12 02:14:54;;;;;;;300.07;103.60;;;;;;;2.81;76.91;100852.59;1413779;86;22564;-83
2022/04/12 02:17:21;;;;;;;297.73;108.80;;;;;;;2.78;76.76;100852.77;1402891;87;21308;-83
2022/04/12 02:19:48;;;;;;;233.37;88.43;;;;;;;2.76;76.09;100850.69;1413784;86;21466;-82
2022/04/12 02:22:16;;;;;;;225.63;83.33;;;;;;;2.76;75.53;100856.75;1403598;85;22492;-82
2022/04/12 02:24:43;;;;;;;181.00;72.40;;;;;;;2.77;75.45;100857.63;1406387;87;21438;-82
2022/04/12 02:27:10;;;;;;;194.60;74.13;;;;;;;2.77;75.44;100864.16;1417507;86;21608;-82
2022/04/12 02:29:37;;;;;;;187.80;68.87;;;;;;;2.78;75.43;100861.91;1407903;86;21548;-83
2022/04/12 02:32:06;;;;;;;184.93;71.27;;;;;;;2.77;75.63;100861.55;1403114;87;21559;-83
2022/04/12 02:34:34;;;;;;;203.83;73.77;;;;;;;2.73;75.51;100853.48;1402822;87;22410;-83
2022/04/12 02:37:01;;;;;;;158.93;64.80;;;;;;;2.68;75.80;100855.91;1414923;87;21418;-83
2022/04/12 02:39:28;;;;;;;162.07;60.03;;;;;;;2.58;76.81;100863.87;1401174;86;21507;-82
2022/04/12 02:41:56;;;;;;;164.83;63.27;;;;;;;2.48;76.41;100856.17;1400878;88;21345;-82
2022/04/12 02:44:23;;;;;;;153.90;53.00;;;;;;;2.43;76.05;100859.50;1406070;87;21558;-82
2022/04/12 02:46:50;;;;;;;175.60;64.77;;;;;;;2.41;76.40;100859.57;1417277;86;21396;-83
2022/04/12 02:49:17;;;;;;;174.10;67.40;;;;;;;2.34;76.62;100858.70;1395923;88;22335;-82
2022/04/12 02:51:45;;;;;;;177.30;67.33;;;;;;;2.28;76.46;100859.89;1403356;86;22528;-82
2022/04/12 02:54:14;;;;;;;200.50;71.13;;;;;;;2.24;76.86;100852.69;1409065;88;21419;-82
2022/04/12 02:56:41;;;;;;;186.33;66.73;;;;;;;2.18;77.06;100853.47;1410072;87;21581;-82
2022/04/12 02:59:08;;;;;;;172.13;66.07;;;;;;;2.12;76.85;100854.64;1409974;87;21514;-82
2022/04/12 03:01:36;;;;;;;110.63;47.87;;;;;;;2.08;76.52;100859.66;1409510;87;22508;-82
2022/04/12 03:04:03;;;;;;;129.60;49.67;;;;;;;2.05;76.40;100855.08;1410011;86;22526;-82
2022/04/12 03:06:31;;;;;;;115.90;46.77;;;;;;;2.00;76.97;100852.23;1407835;87;21302;-83
2022/04/12 03:08:58;;;;;;;104.30;35.63;;;;;;;1.96;77.31;100854.64;1398495;88;22387;-83
2022/04/12 03:11:25;;;;;;;126.63;43.23;;;;;;;1.93;76.73;100848.28;1400257;87;22636;-83
2022/04/12 03:13:52;;;;;;;116.60;45.60;;;;;;;1.91;76.64;100854.50;1405048;87;23047;-83
2022/04/12 03:16:21;;;;;;;101.87;42.40;;;;;;;1.87;76.98;100856.44;1405035;87;21628;-83
2022/04/12 03:18:56;;;;;;;83.67;35.45;;;;;;;1.78;77.03;100864.30;1398583;88;21610;-84
2022/04/12 03:21:23;;;;;;;111.93;43.20;;;;;;;1.72;77.05;100865.05;1405258;87;22387;-82
2022/04/12 03:23:50;;;;;;;114.90;49.40;;;;;;;1.67;77.46;100864.02;1409106;87;22125;-82
2022/04/12 03:26:17;;;;;;;117.83;45.70;;;;;;;1.62;77.34;100867.31;1409591;86;21626;-84
2022/04/12 03:28:44;;;;;;;96.42;36.50;;;;;;;1.55;77.69;100865.92;1409519;87;21717;-84
2022/04/12 03:31:12;;;;;;;107.05;42.65;;;;;;;1.48;77.56;100871.94;1416070;87;21197;-84
2022/04/12 03:33:39;;;;;;;115.57;43.75;;;;;;;1.46;77.60;100874.23;1388833;86;22225;-84
2022/04/12 03:36:06;;;;;;;105.97;40.60;;;;;;;1.46;77.41;100871.63;1380654;89;21316;-84
2022/04/12 03:38:35;;;;;;;95.77;39.80;;;;;;;1.44;78.46;100870.84;1391057;88;21589;-84
2022/04/12 03:41:03;;;;;;;111.72;42.85;;;;;;;1.41;77.97;100865.80;1382261;88;21444;-83
2022/04/12 03:43:30;;;;;;;115.80;46.00;;;;;;;1.35;78.48;100874.34;1374172;89;21406;-83
2022/04/12 03:45:57;;;;;;;117.10;44.58;;;;;;;1.31;77.77;100878.00;1362863;90;21324;-82
2022/04/12 03:48:24;;;;;;;92.97;39.60;;;;;;;1.26;78.78;100877.37;1371947;90;22867;-81
2022/04/12 03:50:51;;;;;;;95.70;38.15;;;;;;;1.20;79.06;100886.81;1365047;90;21339;-82
2022/04/12 03:53:18;;;;;;;92.72;37.30;;;;;;;1.00;80.66;100890.87;1378045;89;21390;-82
2022/04/12 03:55:46;;;;;;;88.70;33.98;;;;;;;0.79;80.72;100896.21;1372795;89;22197;-81
2022/04/12 03:58:19;;;;;;;82.88;32.85;;;;;;;0.55;80.66;100900.00;1381414;89;21348;-81
2022/04/12 04:00:42;;;;;;;89.00;34.80;;;;;;;0.36;81.55;100900.84;1383236;89;21375;-81
2022/04/12 04:03:09;;;;;;;84.58;35.70;;;;;;;0.28;81.00;100901.64;1383800;89;21522;-81
2022/04/12 04:05:36;;;;;;;90.12;36.95;;;;;;;0.27;81.63;100898.66;1383065;89;22210;-81
2022/04/12 04:08:04;;;;;;;87.92;38.25;;;;;;;0.31;81.11;100900.19;1383538;89;21404;-82
2022/04/12 04:10:31;;;;;;;105.00;40.25;;;;;;;0.37;81.06;100897.77;1383238;89;21494;-81
2022/04/12 04:12:58;;;;;;;94.47;40.05;;;;;;;0.42;81.77;100905.75;1379953;89;21324;-81
2022/04/12 04:15:25;;;;;;;93.42;37.63;;;;;;;0.46;82.79;100909.05;1380052;89;21338;-82
2022/04/12 04:17:52;;;;;;;103.38;40.58;;;;;;;0.51;81.66;100910.16;1379139;89;21316;-82
2022/04/12 04:20:19;;;;;;;99.77;37.80;;;;;;;0.60;81.00;100911.02;1376089;89;21360;-81
2022/04/12 04:22:46;;;;;;;88.03;37.80;;;;;;;0.66;81.68;100916.81;1383336;89;22263;-81
2022/04/12 04:25:15;;;;;;;98.87;39.10;;;;;;;0.73;81.71;100915.21;1416625;86;21432;-81
2022/04/12 04:27:43;;;;;;;105.45;43.13;;;;;;;0.78;81.16;100914.08;1409230;86;21475;-81
2022/04/12 04:30:11;;;;;;;109.15;41.40;;;;;;;0.88;80.53;100920.98;1408251;86;21278;-82
2022/04/12 04:32:40;;;;;;;113.28;42.60;;;;;;;0.99;80.34;100912.66;1408066;87;21322;-81
2022/04/12 04:35:08;;;;;;;96.00;40.08;;;;;;;1.08;80.31;100914.81;1411264;88;21271;-81
2022/04/12 04:37:43;;;;;;;100.80;41.58;;;;;;;1.15;80.59;100914.87;1404164;86;21517;-80
2022/04/12 04:40:17;;;;;;;86.57;39.67;;;;;;;1.20;80.42;100926.39;1402618;87;21338;-81
2022/04/12 04:42:45;;;;;;;88.60;39.63;;;;;;;1.22;80.71;100927.17;1402439;87;22132;-79
2022/04/12 04:45:13;;;;;;;86.72;41.00;;;;;;;1.13;81.48;100934.52;1402991;87;22329;-79
2022/04/12 04:47:56;;;;;;;93.03;38.23;;;;;;;1.09;81.70;100942.55;1375859;90;22240;-81
2022/04/12 04:50:30;;;;;;;79.87;37.42;;;;;;;1.19;80.79;100942.97;1405125;87;21360;-80
2022/04/12 04:52:59;;;;;;;92.70;36.50;;;;;;;1.34;80.59;100943.05;1403522;87;22336;-79
2022/04/12 04:55:26;;;;;;;90.60;40.87;;;;;;;1.50;80.38;100948.36;1409811;87;21538;-94
2022/04/12 04:57:56;;;;;;;88.33;36.80;;;;;;;1.61;80.18;100962.14;1432352;86;22172;-87
2022/04/12 05:00:26;;;;;;;70.63;33.57;;;;;;;1.66;80.57;100958.85;1411270;87;21505;-88
2022/04/12 05:02:54;;;;;;;74.40;33.93;;;;;;;1.75;79.79;100954.46;1407219;86;21565;-88
2022/04/12 05:05:22;;;;;;;70.97;32.27;;;;;;;1.94;79.54;100950.92;1398983;87;21455;-88
2022/04/12 05:07:53;;;;;;;65.73;31.43;;;;;;;2.06;79.16;100954.20;1399928;87;21466;-87
2022/04/12 05:10:29;;;;;;;61.47;28.87;;;;;;;2.11;78.84;100957.42;1418470;86;21431;-87
2022/04/12 05:12:58;;;;;;;71.97;31.30;;;;;;;2.20;78.22;100960.00;1406269;86;21387;-87
2022/04/12 05:15:27;;;;;;;57.67;25.77;;;;;;;2.38;78.19;100951.65;1405579;87;21434;-87
2022/04/12 05:17:55;;;;;;;56.17;26.43;;;;;;;2.56;77.84;100951.98;1406136;87;21432;-87
2022/04/12 05:20:25;;;;;;;63.30;29.10;;;;;;;2.74;77.53;100953.20;1412461;86;21651;-81
2022/04/12 05:22:53;;;;;;;59.40;26.70;;;;;;;2.92;77.12;100966.08;1391672;88;21561;-88
2022/04/12 05:25:21;;;;;;;58.53;26.33;;;;;;;2.99;76.57;100977.03;1378269;89;21481;-90
2022/04/12 05:27:52;;;;;;;58.97;27.67;;;;;;;2.98;77.26;100984.98;1393898;88;21565;-87
2022/04/12 05:30:22;;;;;;;49.80;23.87;;;;;;;3.05;76.96;100988.48;1401814;87;21473;-90
2022/04/12 05:32:50;;;;;;;48.27;23.53;;;;;;;3.11;76.37;100981.60;1407226;87;21611;-91
2022/04/12 05:35:17;;;;;;;47.67;24.10;;;;;;;3.19;75.01;100986.85;1407096;87;21586;-91
2022/04/12 05:37:49;;;;;;;36.70;19.73;;;;;;;3.23;74.94;100995.76;1407706;87;21489;-90
2022/04/12 05:40:18;;;;;;;41.47;20.37;;;;;;;3.26;75.06;101000.81;1407004;87;21585;-90
2022/04/12 05:42:46;;;;;;;33.53;17.17;;;;;;;3.38;75.01;100996.66;1407361;87;22466;-91
2022/04/12 05:45:14;;;;;;;20.40;12.57;;;;;;;3.52;74.75;100994.56;1407543;87;22996;-91
2022/04/12 05:47:51;;;;;;;16.40;9.70;;;;;;;3.68;74.71;100993.19;1407532;87;21582;-93
2022/04/12 05:50:23;;;;;;;11.60;7.77;;;;;;;3.84;73.93;100991.38;1386566;88;22466;-91
2022/04/12 05:52:51;;;;;;;16.70;7.03;;;;;;;4.05;73.60;100984.00;1408083;87;21718;-94
2022/04/12 05:55:22;;;;;;;12.33;6.53;;;;;;;4.46;72.62;100982.81;1409731;87;21682;-91
2022/04/12 05:58:03;;;;;;;10.90;6.83;;;;;;;4.46;72.62;100982.81;1409258;88;21652;-92
2022/04/12 06:00:33;;;;;;;12.10;7.07;;;;;;;4.66;71.92;100982.02;1406319;87;21905;-93
2022/04/12 06:03:00;;;;;;;9.73;6.33;;;;;;;4.83;71.21;100972.63;1402707;88;21838;-93
2022/04/12 06:05:30;;;;;;;9.17;5.80;;;;;;;5.29;70.44;100987.19;1403179;88;22255;-93
2022/04/12 06:08:00;;;;;;;10.20;4.97;;;;;;;5.29;70.44;100987.19;1403182;88;21830;-93
2022/04/12 06:10:27;;;;;;;9.73;5.80;;;;;;;5.40;69.26;100980.30;1403487;88;22088;-95
2022/04/12 06:12:54;;;;;;;12.60;6.63;;;;;;;5.64;69.96;100981.80;1403119;87;21979;-93
2022/04/12 06:15:21;;;;;;;12.47;6.87;;;;;;;5.82;69.20;100981.02;1387948;89;22084;-93
2022/04/12 06:17:48;;;;;;;11.20;6.27;;;;;;;6.12;67.88;100983.84;1403023;88;22087;-93
2022/04/12 06:20:18;;;;;;;10.13;5.57;;;;;;;6.12;67.88;100983.84;1403075;86;21330;-93
2022/04/12 06:22:45;;;;;;;11.50;7.20;;;;;;;6.25;67.00;100983.38;1403570;88;21405;-93
2022/04/12 06:25:16;;;;;;;11.10;6.97;;;;;;;6.37;65.84;100984.79;1403297;88;21287;-92
2022/04/12 06:27:50;;;;;;;12.23;6.62;;;;;;;6.51;65.89;100983.35;1403494;87;22225;-92
2022/04/12 06:30:20;;;;;;;13.33;7.33;;;;;;;6.64;65.34;100978.05;1403929;88;21396;-92
2022/04/12 06:32:50;;;;;;;14.53;7.20;;;;;;;6.83;66.07;100979.75;1403427;88;21389;-91
2022/04/12 06:35:19;;;;;;;10.83;5.70;;;;;;;7.00;65.36;100983.32;1402103;87;21434;-93
2022/04/12 06:37:47;;;;;;;11.03;5.53;;;;;;;7.16;64.71;100987.46;1387221;89;21301;-92
2022/04/12 06:40:17;;;;;;;7.40;5.00;;;;;;;7.33;64.63;100991.50;1388604;89;21368;-92
2022/04/12 06:45:15;;;;;;;9.65;5.30;;;;;;;7.67;63.93;100993.30;1394846;87;21663;-96
2022/04/12 06:47:43;;;;;;;9.23;4.43;;;;;;;7.86;63.30;100995.41;1379521;89;21324;-94
2022/04/12 06:50:11;;;;;;;10.30;5.20;;;;;;;8.01;62.28;100996.03;1367291;90;21460;-94
2022/04/12 06:52:39;;;;;;;9.63;5.17;;;;;;;8.10;61.18;101007.19;1367257;89;21286;-91
2022/04/12 06:55:07;;;;;;;9.53;4.07;;;;;;;8.13;59.23;101006.95;1353621;91;21325;-90
2022/04/12 06:57:36;;;;;;;7.00;4.07;;;;;;;8.26;60.52;101000.75;1367446;90;22325;-92
2022/04/12 07:00:08;;;;;;;5.10;3.63;;;;;;;8.37;59.15;100998.09;1367160;90;22174;-93
2022/04/12 07:02:36;;;;;;;9.67;4.50;;;;;;;8.51;60.30;100997.89;1367761;90;21352;-93
2022/04/12 07:05:06;;;;;;;7.50;4.17;;;;;;;8.35;57.80;101002.67;1367188;89;21258;-93
2022/04/12 07:07:37;;;;;;;12.23;5.37;;;;;;;8.47;58.81;101003.05;1367721;90;21353;-93
2022/04/12 07:10:07;;;;;;;12.30;5.47;;;;;;;8.53;58.70;101009.66;1367339;90;21501;-92
2022/04/12 07:12:40;;;;;;;12.07;5.37;;;;;;;8.66;58.82;101004.23;1367228;89;21361;-91
2022/04/12 07:15:12;;;;;;;8.03;4.47;;;;;;;8.64;55.07;101008.82;1367578;90;22358;-94
2022/04/12 07:17:39;;;;;;;8.60;4.13;;;;;;;8.65;55.22;101001.25;1367455;89;22086;-92
2022/04/12 07:20:08;;;;;;;9.00;5.03;;;;;;;8.70;57.13;101010.97;1368412;90;21287;-94
2022/04/12 07:22:35;;;;;;;6.20;3.90;;;;;;;8.92;57.98;101009.63;1368471;90;21286;-93
2022/04/12 07:25:02;;;;;;;6.97;4.00;;;;;;;9.10;57.20;101010.43;1368004;89;22579;-92
2022/04/12 07:27:36;;;;;;;10.80;3.90;;;;;;;9.29;54.94;101012.41;1367868;90;21346;-96
2022/04/12 07:30:06;;;;;;;10.70;3.83;;;;;;;9.49;54.43;101012.47;1369585;89;21361;-93
2022/04/12 07:32:33;;;;;;;7.57;4.40;;;;;;;9.67;54.87;101010.59;1367189;90;21405;-92
2022/04/12 07:35:01;;;;;;;4.90;2.90;;;;;;;9.77;53.78;101010.16;1367039;90;21369;-90
2022/04/12 07:37:28;;;;;;;5.93;3.40;;;;;;;9.87;53.08;101015.05;1366841;89;21368;-91
2022/04/12 07:39:56;;;;;;;8.20;3.63;;;;;;;9.92;49.93;101012.83;1367440;90;21317;-91
2022/04/12 07:42:23;;;;;;;7.40;3.30;;;;;;;9.96;52.01;101009.47;1366925;90;21324;-92
2022/04/12 07:44:51;;;;;;;7.50;3.30;;;;;;;10.13;52.24;101010.69;1367137;90;21316;-91
2022/04/12 07:47:18;;;;;;;6.27;2.83;;;;;;;10.22;48.69;101015.19;1369723;89;21436;-91
2022/04/12 07:49:45;;;;;;;5.10;2.87;;;;;;;10.27;48.16;101017.00;1368697;90;21325;-91
2022/04/12 07:52:12;;;;;;;4.07;2.80;;;;;;;10.08;44.14;101024.30;1368610;90;22241;-92
2022/04/12 07:54:39;;;;;;;6.17;3.00;;;;;;;10.23;48.70;101026.11;1368223;90;21237;-91
2022/04/12 07:57:06;;;;;;;6.87;3.80;;;;;;;10.21;47.93;101021.43;1368792;90;21325;-92
2022/04/12 07:59:33;;;;;;;5.07;2.50;;;;;;;10.25;48.57;101024.19;1368336;90;21341;-93
2022/04/12 08:02:00;;;;;;;5.83;3.43;;;;;;;10.36;45.85;101024.14;1354141;91;21348;-92
2022/04/12 08:04:28;;;;;;;3.90;2.80;;;;;;;10.43;48.05;101022.29;1368220;90;21325;-92
2022/04/12 08:06:55;;;;;;;6.83;2.80;;;;;;;10.35;44.43;101026.41;1368462;90;21362;-87
2022/04/12 08:09:22;;;;;;;5.30;2.90;;;;;;;10.56;47.79;101016.30;1368701;90;21354;-87
2022/04/12 08:11:49;;;;;;;4.10;2.33;;;;;;;10.83;48.13;101020.48;1367402;90;21372;-85
2022/04/12 08:14:16;;;;;;;5.83;2.80;;;;;;;11.06;47.37;101024.25;1348799;91;22646;-86
2022/04/12 08:16:43;;;;;;;4.53;2.50;;;;;;;10.92;42.80;101016.69;1350896;90;22574;-87
2022/04/12 08:19:11;;;;;;;5.33;2.70;;;;;;;11.18;46.45;101018.34;1351693;90;21266;-88
2022/04/12 08:21:40;;;;;;;4.70;2.47;;;;;;;11.48;46.65;101025.36;1351179;91;21557;-85
2022/04/12 08:24:08;;;;;;;6.93;2.37;;;;;;;11.72;45.41;101028.41;1351452;90;21562;-85
2022/04/12 08:26:37;;;;;;;5.33;2.40;;;;;;;11.94;44.65;101020.69;1351429;91;21532;-87
2022/04/12 08:29:06;;;;;;;6.17;2.80;;;;;;;12.12;43.16;101007.52;1351315;91;21266;-85
2022/04/12 08:31:33;;;;;;;5.55;2.77;;;;;;;12.03;41.07;101012.37;1370624;89;21257;-85
2022/04/12 08:34:01;;;;;;;7.80;2.80;;;;;;;11.98;42.77;101005.32;1354160;90;21467;-86
2022/04/12 08:36:28;;;;;;;3.97;2.50;;;;;;;12.15;43.86;101011.22;1354059;90;21349;-86
2022/04/12 08:38:55;;;;;;;3.97;2.40;;;;;;;12.40;43.86;101000.95;1353995;90;21407;-85
2022/04/12 08:41:26;;;;;;;7.83;3.90;;;;;;;12.64;43.43;101002.58;1346920;91;22235;-85
2022/04/12 08:43:58;;;;;;;5.37;2.40;;;;;;;12.71;37.64;100998.01;1354328;90;21340;-86
2022/04/12 08:46:27;;;;;;;5.37;2.20;;;;;;;12.68;41.12;100994.32;1362529;88;22441;-85
2022/04/12 08:48:57;;;;;;;6.50;2.40;;;;;;;12.58;39.47;100989.90;1377103;89;21264;-86
2022/04/12 08:51:33;;;;;;;5.30;2.77;;;;;;;12.51;37.67;100990.13;1358058;90;21348;-85
2022/04/12 08:53:57;;;;;;;8.20;2.77;;;;;;;12.61;39.50;100988.27;1356718;91;22293;-85
2022/04/12 08:56:27;;;;;;;4.05;2.67;;;;;;;12.45;39.70;100986.73;1358585;90;21428;-85
2022/04/12 08:58:56;;;;;;;4.50;2.55;;;;;;;12.26;38.75;100980.19;1358127;91;21295;-86
2022/04/12 09:01:23;;;;;;;4.50;2.10;;;;;;;12.33;40.08;100983.42;1358086;91;21251;-87
2022/04/12 09:03:52;;;;;;;4.37;2.23;;;;;;;12.65;41.27;100977.69;1358073;90;21362;-86
2022/04/12 09:06:20;;;;;;;5.07;2.73;;;;;;;12.60;39.19;100979.97;1357749;90;21402;-85
2022/04/12 09:08:47;;;;;;;2.97;2.00;;;;;;;12.47;35.95;100982.12;1358273;90;21435;-87
2022/04/12 09:11:17;;;;;;;4.97;2.73;;;;;;;12.47;35.78;100981.29;1357927;91;21428;-85
2022/04/12 09:14:00;;;;;;;5.58;2.83;;;;;;;12.16;33.20;100985.02;1357501;91;21206;-87
2022/04/12 09:16:28;;;;;;;6.97;2.23;;;;;;;12.62;37.30;100980.64;1358110;90;21399;-87
2022/04/12 09:18:56;;;;;;;3.10;2.13;;;;;;;12.69;35.38;100977.39;1344003;92;21309;-83
2022/04/12 09:21:30;;;;;;;3.20;2.07;;;;;;;13.10;36.50;100976.04;1357735;89;21356;-83
2022/04/12 09:23:58;;;;;;;4.23;2.33;;;;;;;13.07;34.58;100976.34;1358030;91;21472;-84
2022/04/12 09:26:31;;;;;;;5.67;2.60;;;;;;;13.21;37.02;100973.16;1343900;92;21236;-86
2022/04/12 09:29:00;;;;;;;4.77;2.47;;;;;;;13.51;36.49;100963.98;1357680;91;21383;-84
2022/04/12 09:31:27;;;;;;;5.07;2.90;;;;;;;13.81;35.69;100971.68;1357646;90;22543;-85
2022/04/12 09:33:55;;;;;;;3.63;2.20;;;;;;;14.11;36.44;100970.40;1357694;91;21266;-86
2022/04/12 09:36:22;;;;;;;5.17;2.47;;;;;;;13.80;36.12;100968.19;1357498;90;21199;-85
2022/04/12 09:38:59;;;;;;;3.57;2.40;;;;;;;13.54;36.15;100967.66;1357674;89;21258;-84
2022/04/12 09:41:27;;;;;;;3.10;1.97;;;;;;;13.60;36.36;100966.71;1357356;91;21214;-87
2022/04/12 09:44:11;;;;;;;7.60;4.07;;;;;;;13.31;34.91;100966.47;1357917;91;21347;-84
2022/04/12 09:46:39;;;;;;;3.53;1.80;;;;;;;12.91;35.05;100969.52;1356367;90;21369;-88
2022/04/12 09:49:07;;;;;;;11.30;2.23;;;;;;;12.73;33.79;100971.65;1352204;91;21391;-86
2022/04/12 09:51:36;;;;;;;4.57;2.00;;;;;;;13.07;35.63;100973.19;1351802;91;21199;-86
2022/04/12 09:54:08;;;;;;;3.10;2.03;;;;;;;13.29;32.73;100969.29;1351749;91;21325;-86
2022/04/12 09:56:38;;;;;;;8.20;1.70;;;;;;;13.77;34.58;100964.52;1351980;90;21214;-85
2022/04/12 09:59:07;;;;;;;9.30;2.08;;;;;;;13.79;30.61;100970.52;1351954;90;22117;-85
2022/04/12 10:01:39;;;;;;;7.87;1.97;;;;;;;14.21;32.79;100970.63;1351991;91;21221;-86
2022/04/12 10:04:08;;;;;;;2.53;1.70;;;;;;;14.23;30.85;100965.13;1338299;93;21555;-86
2022/04/12 10:06:40;;;;;;;5.17;2.12;;;;;;;13.95;30.82;100970.64;1352291;90;21407;-85
2022/04/12 10:09:14;;;;;;;3.93;1.67;;;;;;;13.79;31.99;100963.88;1351920;91;21377;-85
2022/04/12 10:11:42;;;;;;;6.47;3.20;;;;;;;13.56;32.32;100968.02;1337720;92;22670;-85
2022/04/12 10:14:12;;;;;;;3.53;2.17;;;;;;;13.22;31.47;100961.53;1352472;91;21355;-85
2022/04/12 10:16:40;;;;;;;4.08;1.72;;;;;;;13.30;33.06;100956.33;1352109;90;21244;-85
2022/04/12 10:19:08;;;;;;;3.20;2.00;;;;;;;13.46;33.98;100962.27;1352498;91;21266;-85
2022/04/12 10:21:35;;;;;;;4.03;2.07;;;;;;;13.63;32.07;100953.09;1352287;91;21328;-86
2022/04/12 10:24:04;;;;;;;3.63;2.13;;;;;;;14.04;32.17;100953.38;1351904;90;21244;-85
2022/04/12 10:26:32;;;;;;;4.73;2.83;;;;;;;14.13;31.93;100957.27;1352217;90;21318;-85
2022/04/12 10:29:04;;;;;;;3.93;2.70;;;;;;;13.89;30.04;100955.78;1352376;90;21259;-84
2022/04/12 10:31:31;;;;;;;3.90;2.40;;;;;;;13.48;29.20;100956.81;1338736;93;21466;-84
2022/04/12 10:34:11;;;;;;;6.80;3.90;;;;;;;13.64;29.29;100949.47;1351930;91;21281;-85
2022/04/12 10:37:02;;;;;;;5.42;3.33;;;;;;;13.95;32.20;100950.69;1351837;91;21458;-85
2022/04/12 10:39:36;;;;;;;4.28;2.65;;;;;;;14.30;31.31;100942.70;1355109;91;22159;-83
2022/04/12 10:42:11;;;;;;;8.37;4.57;;;;;;;14.61;29.89;100941.70;1357138;89;21346;-87
2022/04/12 10:44:50;;;;;;;6.07;3.70;;;;;;;15.19;32.09;100940.84;1382807;89;21383;-86
2022/04/12 10:47:38;;;;;;;7.17;3.40;;;;;;;14.78;28.87;100943.41;1383938;87;21533;-86
2022/04/12 10:50:13;;;;;;;6.90;3.53;;;;;;;14.66;30.09;100935.39;1386512;89;21412;-85
2022/04/12 10:52:48;;;;;;;8.57;3.83;;;;;;;14.00;30.75;100937.72;1383042;88;21375;-85
2022/04/12 10:55:23;;;;;;;6.67;3.13;;;;;;;14.18;31.80;100929.69;1382797;88;22291;-85
2022/04/12 10:57:51;;;;;;;5.37;3.43;;;;;;;14.11;30.67;100926.48;1382098;89;21397;-87
2022/04/12 11:00:22;;;;;;;7.60;4.10;;;;;;;14.39;30.86;100926.61;1383364;89;21302;-86
2022/04/12 11:02:58;;;;;;;6.97;4.80;;;;;;;14.85;30.71;100921.80;1382918;89;22261;-86
2022/04/12 11:05:43;;;;;;;6.57;3.60;;;;;;;15.30;31.59;100921.00;1382861;89;21486;-86
2022/04/12 11:08:21;;;;;;;9.37;5.63;;;;;;;15.75;32.63;100923.17;1384494;88;22240;-86
2022/04/12 11:10:57;;;;;;;7.20;3.80;;;;;;;15.93;30.90;100924.80;1382676;89;21353;-85
2022/04/12 11:13:31;;;;;;;17.43;5.10;;;;;;;15.70;29.96;100919.34;1382664;88;21323;-86
2022/04/12 11:16:04;;;;;;;5.67;3.80;;;;;;;15.49;30.51;100919.84;1382651;88;22181;-85
2022/04/12 11:18:54;;;;;;;13.50;5.60;;;;;;;14.86;29.71;100918.13;1382406;89;21411;-85
2022/04/12 11:21:25;;;;;;;13.88;4.60;;;;;;;14.84;30.36;100920.11;1370975;90;22335;-86
2022/04/12 11:24:02;;;;;;;8.07;4.20;;;;;;;15.16;30.11;100922.48;1382722;89;22448;-86
2022/04/12 11:26:48;;;;;;;7.60;3.67;;;;;;;15.47;31.36;100921.33;1382463;88;21227;-86
2022/04/12 11:29:21;;;;;;;6.07;4.00;;;;;;;15.73;31.56;100919.83;1383034;88;21522;-86
2022/04/12 11:31:51;;;;;;;5.13;3.90;;;;;;;16.01;29.76;100910.94;1382397;89;22329;-86